sensor_id;sensor_type;location;lat;lon;timestamp;P1;durP1;ratioP1;P2;durP2;ratioP2
8938;SDS011;4504;48.810;9.172;2022-08-25T00:01:44;100.00;;;2.03;;
8938;SDS011;4504;48.810;9.172;2022-08-25T00:04:14;101.60;;;2.10;;
8938;SDS011;4504;48.810;9.172;2022-08-25T00:06:42;100.60;;;2.20;;
8938;SDS011;4504;48.810;9.172;2022-08-25T00:09:10;109.83;;;2.20;;
8938;SDS011;4504;48.810;9.172;2022-08-25T00:11:39;100.70;;;1.90;;
8938;SDS011;4504;48.810;9.172;2022-08-25T00:14:10;101.37;;;2.10;;
8938;SDS011;4504;48.810;9.172;2022-08-25T00:16:39;100.40;;;2.47;;
8938;SDS011;4504;48.810;9.172;2022-08-25T00:19:08;101.37;;;2.20;;
8938;SDS011;4504;48.810;9.172;2022-08-25T00:21:39;101.37;;;2.30;;
8938;SDS011;4504;48.810;9.172;2022-08-25T00:24:07;103.90;;;2.20;;
8938;SDS011;4504;48.810;9.172;2022-08-25T00:26:37;100.83;;;1.97;;
8938;SDS011;4504;48.810;9.172;2022-08-25T00:29:05;101.67;;;2.10;;
8938;SDS011;4504;48.810;9.172;2022-08-25T00:31:33;101.37;;;2.00;;
8938;SDS011;4504;48.810;9.172;2022-08-25T00:34:01;101.17;;;1.93;;
8938;SDS011;4504;48.810;9.172;2022-08-25T00:36:31;102.93;;;2.37;;
8938;SDS011;4504;48.810;9.172;2022-08-25T00:38:59;101.77;;;2.40;;
8938;SDS011;4504;48.810;9.172;2022-08-25T00:41:26;102.83;;;2.20;;
8938;SDS011;4504;48.810;9.172;2022-08-25T00:43:55;100.93;;;2.27;;
8938;SDS011;4504;48.810;9.172;2022-08-25T00:46:25;101.07;;;2.13;;
8938;SDS011;4504;48.810;9.172;2022-08-25T00:48:56;102.13;;;2.17;;
8938;SDS011;4504;48.810;9.172;2022-08-25T00:51:27;100.40;;;2.30;;
8938;SDS011;4504;48.810;9.172;2022-08-25T00:53:58;106.13;;;2.70;;
8938;SDS011;4504;48.810;9.172;2022-08-25T00:56:26;102.47;;;2.60;;
8938;SDS011;4504;48.810;9.172;2022-08-25T00:58:56;100.40;;;2.17;;
8938;SDS011;4504;48.810;9.172;2022-08-25T01:01:23;102.03;;;2.50;;
8938;SDS011;4504;48.810;9.172;2022-08-25T01:03:51;101.07;;;2.50;;
8938;SDS011;4504;48.810;9.172;2022-08-25T01:06:19;100.80;;;2.30;;
8938;SDS011;4504;48.810;9.172;2022-08-25T01:08:47;101.17;;;2.50;;
8938;SDS011;4504;48.810;9.172;2022-08-25T01:11:14;101.67;;;2.50;;
8938;SDS011;4504;48.810;9.172;2022-08-25T01:13:41;101.13;;;2.30;;
8938;SDS011;4504;48.810;9.172;2022-08-25T01:16:11;102.30;;;2.10;;
8938;SDS011;4504;48.810;9.172;2022-08-25T01:18:44;101.90;;;2.50;;
8938;SDS011;4504;48.810;9.172;2022-08-25T01:21:16;102.30;;;2.33;;
8938;SDS011;4504;48.810;9.172;2022-08-25T01:23:43;101.37;;;2.27;;
8938;SDS011;4504;48.810;9.172;2022-08-25T01:26:12;102.40;;;2.30;;
8938;SDS011;4504;48.810;9.172;2022-08-25T01:28:41;102.97;;;2.90;;
8938;SDS011;4504;48.810;9.172;2022-08-25T01:31:24;101.97;;;2.47;;
8938;SDS011;4504;48.810;9.172;2022-08-25T01:33:51;102.37;;;2.40;;
8938;SDS011;4504;48.810;9.172;2022-08-25T01:36:20;101.83;;;2.20;;
8938;SDS011;4504;48.810;9.172;2022-08-25T01:38:48;101.67;;;2.13;;
8938;SDS011;4504;48.810;9.172;2022-08-25T01:41:16;102.50;;;2.13;;
8938;SDS011;4504;48.810;9.172;2022-08-25T01:43:46;102.27;;;2.30;;
8938;SDS011;4504;48.810;9.172;2022-08-25T01:46:13;101.87;;;2.27;;
8938;SDS011;4504;48.810;9.172;2022-08-25T01:48:40;102.30;;;2.33;;
8938;SDS011;4504;48.810;9.172;2022-08-25T01:51:07;103.37;;;2.60;;
8938;SDS011;4504;48.810;9.172;2022-08-25T01:53:36;101.37;;;2.30;;
8938;SDS011;4504;48.810;9.172;2022-08-25T01:56:06;101.93;;;2.50;;
8938;SDS011;4504;48.810;9.172;2022-08-25T01:58:37;101.37;;;2.60;;
8938;SDS011;4504;48.810;9.172;2022-08-25T02:01:06;103.13;;;2.57;;
8938;SDS011;4504;48.810;9.172;2022-08-25T02:03:36;102.20;;;2.40;;
8938;SDS011;4504;48.810;9.172;2022-08-25T02:06:04;100.77;;;2.47;;
8938;SDS011;4504;48.810;9.172;2022-08-25T02:08:32;103.10;;;2.57;;
8938;SDS011;4504;48.810;9.172;2022-08-25T02:11:00;101.33;;;2.40;;
8938;SDS011;4504;48.810;9.172;2022-08-25T02:13:27;102.60;;;2.60;;
8938;SDS011;4504;48.810;9.172;2022-08-25T02:15:55;101.50;;;2.47;;
8938;SDS011;4504;48.810;9.172;2022-08-25T02:18:24;102.20;;;2.60;;
8938;SDS011;4504;48.810;9.172;2022-08-25T02:20:51;103.27;;;2.50;;
8938;SDS011;4504;48.810;9.172;2022-08-25T02:23:18;102.43;;;2.80;;
8938;SDS011;4504;48.810;9.172;2022-08-25T02:25:45;104.00;;;2.70;;
8938;SDS011;4504;48.810;9.172;2022-08-25T02:28:14;103.10;;;2.67;;
8938;SDS011;4504;48.810;9.172;2022-08-25T02:30:41;102.03;;;2.53;;
8938;SDS011;4504;48.810;9.172;2022-08-25T02:33:08;102.00;;;2.63;;
8938;SDS011;4504;48.810;9.172;2022-08-25T02:35:36;112.23;;;2.40;;
8938;SDS011;4504;48.810;9.172;2022-08-25T02:38:03;102.30;;;2.20;;
8938;SDS011;4504;48.810;9.172;2022-08-25T02:40:31;105.63;;;2.70;;
8938;SDS011;4504;48.810;9.172;2022-08-25T02:42:58;102.60;;;2.40;;
8938;SDS011;4504;48.810;9.172;2022-08-25T02:45:27;103.33;;;2.50;;
8938;SDS011;4504;48.810;9.172;2022-08-25T02:47:54;102.97;;;2.70;;
8938;SDS011;4504;48.810;9.172;2022-08-25T02:50:22;102.83;;;2.30;;
8938;SDS011;4504;48.810;9.172;2022-08-25T02:52:50;103.40;;;2.47;;
8938;SDS011;4504;48.810;9.172;2022-08-25T02:55:17;102.87;;;2.30;;
8938;SDS011;4504;48.810;9.172;2022-08-25T02:57:45;102.20;;;2.53;;
8938;SDS011;4504;48.810;9.172;2022-08-25T03:00:13;104.30;;;2.60;;
8938;SDS011;4504;48.810;9.172;2022-08-25T03:02:42;103.43;;;2.50;;
8938;SDS011;4504;48.810;9.172;2022-08-25T03:05:11;102.17;;;2.17;;
8938;SDS011;4504;48.810;9.172;2022-08-25T03:07:39;103.60;;;2.67;;
8938;SDS011;4504;48.810;9.172;2022-08-25T03:10:07;102.33;;;2.07;;
8938;SDS011;4504;48.810;9.172;2022-08-25T03:12:36;104.80;;;2.80;;
8938;SDS011;4504;48.810;9.172;2022-08-25T03:15:06;102.77;;;2.60;;
8938;SDS011;4504;48.810;9.172;2022-08-25T03:17:34;103.10;;;2.70;;
8938;SDS011;4504;48.810;9.172;2022-08-25T03:20:02;101.60;;;2.20;;
8938;SDS011;4504;48.810;9.172;2022-08-25T03:22:31;101.10;;;2.20;;
8938;SDS011;4504;48.810;9.172;2022-08-25T03:24:58;102.97;;;2.40;;
8938;SDS011;4504;48.810;9.172;2022-08-25T03:27:49;102.77;;;2.10;;
8938;SDS011;4504;48.810;9.172;2022-08-25T03:30:16;103.43;;;2.60;;
8938;SDS011;4504;48.810;9.172;2022-08-25T03:32:43;103.10;;;2.60;;
8938;SDS011;4504;48.810;9.172;2022-08-25T03:35:12;103.47;;;2.50;;
8938;SDS011;4504;48.810;9.172;2022-08-25T03:37:39;103.30;;;2.40;;
8938;SDS011;4504;48.810;9.172;2022-08-25T03:40:07;103.53;;;2.57;;
8938;SDS011;4504;48.810;9.172;2022-08-25T03:42:38;102.17;;;2.10;;
8938;SDS011;4504;48.810;9.172;2022-08-25T03:45:06;103.87;;;2.80;;
8938;SDS011;4504;48.810;9.172;2022-08-25T03:47:35;102.10;;;2.43;;
8938;SDS011;4504;48.810;9.172;2022-08-25T03:50:03;103.20;;;2.20;;
8938;SDS011;4504;48.810;9.172;2022-08-25T03:52:32;102.77;;;2.50;;
8938;SDS011;4504;48.810;9.172;2022-08-25T03:54:59;102.87;;;2.50;;
8938;SDS011;4504;48.810;9.172;2022-08-25T03:57:26;106.83;;;2.60;;
8938;SDS011;4504;48.810;9.172;2022-08-25T03:59:53;104.37;;;2.80;;
8938;SDS011;4504;48.810;9.172;2022-08-25T04:02:20;103.73;;;2.90;;
8938;SDS011;4504;48.810;9.172;2022-08-25T04:04:47;102.73;;;2.77;;
8938;SDS011;4504;48.810;9.172;2022-08-25T04:07:14;101.47;;;2.47;;
8938;SDS011;4504;48.810;9.172;2022-08-25T04:09:42;104.50;;;3.00;;
8938;SDS011;4504;48.810;9.172;2022-08-25T04:12:09;102.87;;;2.60;;
8938;SDS011;4504;48.810;9.172;2022-08-25T04:14:38;103.17;;;2.80;;
8938;SDS011;4504;48.810;9.172;2022-08-25T04:17:06;103.57;;;2.77;;
8938;SDS011;4504;48.810;9.172;2022-08-25T04:19:34;104.60;;;2.70;;
8938;SDS011;4504;48.810;9.172;2022-08-25T04:22:01;103.77;;;2.50;;
8938;SDS011;4504;48.810;9.172;2022-08-25T04:24:28;104.00;;;2.63;;
8938;SDS011;4504;48.810;9.172;2022-08-25T04:26:56;103.77;;;3.37;;
8938;SDS011;4504;48.810;9.172;2022-08-25T04:29:24;104.00;;;2.80;;
8938;SDS011;4504;48.810;9.172;2022-08-25T04:31:52;103.70;;;2.60;;
8938;SDS011;4504;48.810;9.172;2022-08-25T04:34:21;104.97;;;2.80;;
8938;SDS011;4504;48.810;9.172;2022-08-25T04:36:49;103.67;;;2.60;;
8938;SDS011;4504;48.810;9.172;2022-08-25T04:39:16;104.20;;;2.90;;
8938;SDS011;4504;48.810;9.172;2022-08-25T04:41:45;103.70;;;2.93;;
8938;SDS011;4504;48.810;9.172;2022-08-25T04:44:13;104.27;;;2.70;;
8938;SDS011;4504;48.810;9.172;2022-08-25T04:46:41;105.80;;;2.73;;
8938;SDS011;4504;48.810;9.172;2022-08-25T04:49:08;103.30;;;2.90;;
8938;SDS011;4504;48.810;9.172;2022-08-25T04:51:36;103.87;;;2.63;;
8938;SDS011;4504;48.810;9.172;2022-08-25T04:54:05;104.20;;;2.80;;
8938;SDS011;4504;48.810;9.172;2022-08-25T04:56:34;104.97;;;2.90;;
8938;SDS011;4504;48.810;9.172;2022-08-25T04:59:02;103.60;;;2.60;;
8938;SDS011;4504;48.810;9.172;2022-08-25T05:01:31;106.83;;;2.80;;
8938;SDS011;4504;48.810;9.172;2022-08-25T05:03:59;104.83;;;2.90;;
8938;SDS011;4504;48.810;9.172;2022-08-25T05:06:28;104.60;;;3.00;;
8938;SDS011;4504;48.810;9.172;2022-08-25T05:08:56;103.77;;;2.80;;
8938;SDS011;4504;48.810;9.172;2022-08-25T05:11:25;103.87;;;2.50;;
8938;SDS011;4504;48.810;9.172;2022-08-25T05:13:54;106.27;;;2.77;;
8938;SDS011;4504;48.810;9.172;2022-08-25T05:16:22;106.70;;;3.00;;
8938;SDS011;4504;48.810;9.172;2022-08-25T05:18:52;107.00;;;3.70;;
8938;SDS011;4504;48.810;9.172;2022-08-25T05:21:21;110.13;;;5.60;;
8938;SDS011;4504;48.810;9.172;2022-08-25T05:23:49;104.50;;;2.80;;
8938;SDS011;4504;48.810;9.172;2022-08-25T05:26:21;106.10;;;3.47;;
8938;SDS011;4504;48.810;9.172;2022-08-25T05:28:49;105.07;;;3.17;;
8938;SDS011;4504;48.810;9.172;2022-08-25T05:31:19;104.13;;;2.90;;
8938;SDS011;4504;48.810;9.172;2022-08-25T05:33:47;105.37;;;2.87;;
8938;SDS011;4504;48.810;9.172;2022-08-25T05:36:15;103.00;;;2.83;;
8938;SDS011;4504;48.810;9.172;2022-08-25T05:38:43;105.90;;;3.10;;
8938;SDS011;4504;48.810;9.172;2022-08-25T05:41:11;106.53;;;3.37;;
8938;SDS011;4504;48.810;9.172;2022-08-25T05:43:41;102.80;;;2.80;;
8938;SDS011;4504;48.810;9.172;2022-08-25T05:46:09;107.60;;;3.20;;
8938;SDS011;4504;48.810;9.172;2022-08-25T05:48:38;104.37;;;3.00;;
8938;SDS011;4504;48.810;9.172;2022-08-25T05:51:06;103.40;;;3.07;;
8938;SDS011;4504;48.810;9.172;2022-08-25T05:53:37;103.20;;;2.30;;
8938;SDS011;4504;48.810;9.172;2022-08-25T05:56:05;104.27;;;2.63;;
8938;SDS011;4504;48.810;9.172;2022-08-25T05:58:33;103.90;;;2.97;;
8938;SDS011;4504;48.810;9.172;2022-08-25T06:01:00;105.17;;;2.90;;
8938;SDS011;4504;48.810;9.172;2022-08-25T06:03:48;104.70;;;2.60;;
8938;SDS011;4504;48.810;9.172;2022-08-25T06:06:18;105.40;;;3.17;;
8938;SDS011;4504;48.810;9.172;2022-08-25T06:08:47;105.43;;;3.50;;
8938;SDS011;4504;48.810;9.172;2022-08-25T06:11:14;105.77;;;3.33;;
8938;SDS011;4504;48.810;9.172;2022-08-25T06:13:41;103.90;;;2.80;;
8938;SDS011;4504;48.810;9.172;2022-08-25T06:16:09;103.50;;;2.90;;
8938;SDS011;4504;48.810;9.172;2022-08-25T06:18:36;104.07;;;2.80;;
8938;SDS011;4504;48.810;9.172;2022-08-25T06:21:07;104.73;;;2.90;;
8938;SDS011;4504;48.810;9.172;2022-08-25T06:23:35;104.60;;;2.77;;
8938;SDS011;4504;48.810;9.172;2022-08-25T06:26:04;103.57;;;2.50;;
8938;SDS011;4504;48.810;9.172;2022-08-25T06:28:31;105.30;;;2.97;;
8938;SDS011;4504;48.810;9.172;2022-08-25T06:30:58;104.70;;;3.20;;
8938;SDS011;4504;48.810;9.172;2022-08-25T06:33:26;104.63;;;3.40;;
8938;SDS011;4504;48.810;9.172;2022-08-25T06:35:53;106.27;;;3.00;;
8938;SDS011;4504;48.810;9.172;2022-08-25T06:38:21;104.37;;;2.93;;
8938;SDS011;4504;48.810;9.172;2022-08-25T06:40:49;107.17;;;3.60;;
8938;SDS011;4504;48.810;9.172;2022-08-25T06:43:18;103.53;;;3.17;;
8938;SDS011;4504;48.810;9.172;2022-08-25T06:45:45;108.03;;;3.77;;
8938;SDS011;4504;48.810;9.172;2022-08-25T06:48:13;106.97;;;3.60;;
8938;SDS011;4504;48.810;9.172;2022-08-25T06:50:40;103.38;;;3.05;;
8938;SDS011;4504;48.810;9.172;2022-08-25T06:53:08;103.20;;;3.07;;
8938;SDS011;4504;48.810;9.172;2022-08-25T06:55:35;106.30;;;3.10;;
8938;SDS011;4504;48.810;9.172;2022-08-25T06:58:03;104.93;;;3.50;;
8938;SDS011;4504;48.810;9.172;2022-08-25T07:00:31;103.47;;;3.10;;
8938;SDS011;4504;48.810;9.172;2022-08-25T07:03:00;103.57;;;2.80;;
8938;SDS011;4504;48.810;9.172;2022-08-25T07:05:29;104.20;;;3.37;;
8938;SDS011;4504;48.810;9.172;2022-08-25T07:07:56;103.70;;;3.20;;
8938;SDS011;4504;48.810;9.172;2022-08-25T07:10:24;103.97;;;3.87;;
8938;SDS011;4504;48.810;9.172;2022-08-25T07:12:51;104.47;;;2.93;;
8938;SDS011;4504;48.810;9.172;2022-08-25T07:15:18;104.27;;;3.33;;
8938;SDS011;4504;48.810;9.172;2022-08-25T07:17:47;105.97;;;3.43;;
8938;SDS011;4504;48.810;9.172;2022-08-25T07:20:15;105.03;;;3.40;;
8938;SDS011;4504;48.810;9.172;2022-08-25T07:22:43;102.30;;;3.20;;
8938;SDS011;4504;48.810;9.172;2022-08-25T07:25:10;102.20;;;3.10;;
8938;SDS011;4504;48.810;9.172;2022-08-25T07:27:38;103.07;;;3.20;;
8938;SDS011;4504;48.810;9.172;2022-08-25T07:30:05;104.40;;;2.83;;
8938;SDS011;4504;48.810;9.172;2022-08-25T07:32:33;103.17;;;2.93;;
8938;SDS011;4504;48.810;9.172;2022-08-25T07:35:02;102.70;;;2.80;;
8938;SDS011;4504;48.810;9.172;2022-08-25T07:37:41;103.97;;;3.23;;
8938;SDS011;4504;48.810;9.172;2022-08-25T07:40:10;104.90;;;3.40;;
8938;SDS011;4504;48.810;9.172;2022-08-25T07:42:39;105.80;;;3.63;;
8938;SDS011;4504;48.810;9.172;2022-08-25T07:45:07;103.13;;;3.50;;
8938;SDS011;4504;48.810;9.172;2022-08-25T07:47:35;109.20;;;3.17;;
8938;SDS011;4504;48.810;9.172;2022-08-25T07:50:04;102.60;;;3.33;;
8938;SDS011;4504;48.810;9.172;2022-08-25T07:52:33;103.67;;;3.57;;
8938;SDS011;4504;48.810;9.172;2022-08-25T07:55:00;103.07;;;3.43;;
8938;SDS011;4504;48.810;9.172;2022-08-25T07:57:28;102.47;;;2.70;;
8938;SDS011;4504;48.810;9.172;2022-08-25T07:59:55;102.70;;;2.73;;
8938;SDS011;4504;48.810;9.172;2022-08-25T08:02:23;101.90;;;2.70;;
8938;SDS011;4504;48.810;9.172;2022-08-25T08:04:50;103.60;;;3.13;;
8938;SDS011;4504;48.810;9.172;2022-08-25T08:07:20;103.37;;;3.27;;
8938;SDS011;4504;48.810;9.172;2022-08-25T08:09:48;102.67;;;2.80;;
8938;SDS011;4504;48.810;9.172;2022-08-25T08:12:17;103.50;;;3.20;;
8938;SDS011;4504;48.810;9.172;2022-08-25T08:14:44;101.37;;;2.80;;
8938;SDS011;4504;48.810;9.172;2022-08-25T08:17:11;103.43;;;3.00;;
8938;SDS011;4504;48.810;9.172;2022-08-25T08:19:39;103.20;;;3.20;;
8938;SDS011;4504;48.810;9.172;2022-08-25T08:22:06;102.00;;;3.27;;
8938;SDS011;4504;48.810;9.172;2022-08-25T08:24:36;113.03;;;3.87;;
8938;SDS011;4504;48.810;9.172;2022-08-25T08:27:04;102.67;;;3.40;;
8938;SDS011;4504;48.810;9.172;2022-08-25T08:29:32;101.73;;;3.27;;
8938;SDS011;4504;48.810;9.172;2022-08-25T08:32:00;102.07;;;3.23;;
8938;SDS011;4504;48.810;9.172;2022-08-25T08:34:27;105.37;;;3.50;;
8938;SDS011;4504;48.810;9.172;2022-08-25T08:36:54;102.20;;;2.80;;
8938;SDS011;4504;48.810;9.172;2022-08-25T08:39:21;102.30;;;3.23;;
8938;SDS011;4504;48.810;9.172;2022-08-25T08:41:53;101.00;;;2.77;;
8938;SDS011;4504;48.810;9.172;2022-08-25T08:44:53;101.83;;;2.70;;
8938;SDS011;4504;48.810;9.172;2022-08-25T08:47:39;104.17;;;3.63;;
8938;SDS011;4504;48.810;9.172;2022-08-25T08:50:21;101.07;;;2.90;;
8938;SDS011;4504;48.810;9.172;2022-08-25T08:52:55;101.23;;;2.50;;
8938;SDS011;4504;48.810;9.172;2022-08-25T08:55:29;102.77;;;3.00;;
8938;SDS011;4504;48.810;9.172;2022-08-25T08:58:00;101.90;;;3.00;;
8938;SDS011;4504;48.810;9.172;2022-08-25T09:00:31;101.10;;;2.70;;
8938;SDS011;4504;48.810;9.172;2022-08-25T09:03:05;103.83;;;2.90;;
8938;SDS011;4504;48.810;9.172;2022-08-25T09:05:36;102.80;;;3.13;;
8938;SDS011;4504;48.810;9.172;2022-08-25T09:08:10;101.00;;;3.30;;
8938;SDS011;4504;48.810;9.172;2022-08-25T09:10:41;102.10;;;3.07;;
8938;SDS011;4504;48.810;9.172;2022-08-25T09:13:21;99.63;;;2.83;;
8938;SDS011;4504;48.810;9.172;2022-08-25T09:15:59;101.50;;;2.50;;
8938;SDS011;4504;48.810;9.172;2022-08-25T09:18:50;101.20;;;2.60;;
8938;SDS011;4504;48.810;9.172;2022-08-25T09:21:27;100.50;;;2.60;;
8938;SDS011;4504;48.810;9.172;2022-08-25T09:24:12;102.67;;;3.43;;
8938;SDS011;4504;48.810;9.172;2022-08-25T09:26:54;101.27;;;3.10;;
8938;SDS011;4504;48.810;9.172;2022-08-25T09:29:32;100.93;;;3.20;;
8938;SDS011;4504;48.810;9.172;2022-08-25T09:32:07;101.37;;;3.20;;
8938;SDS011;4504;48.810;9.172;2022-08-25T09:34:35;101.17;;;2.80;;
8938;SDS011;4504;48.810;9.172;2022-08-25T09:37:02;102.63;;;2.70;;
8938;SDS011;4504;48.810;9.172;2022-08-25T09:39:30;100.27;;;2.80;;
8938;SDS011;4504;48.810;9.172;2022-08-25T09:41:57;101.50;;;3.13;;
8938;SDS011;4504;48.810;9.172;2022-08-25T09:44:26;100.37;;;2.80;;
8938;SDS011;4504;48.810;9.172;2022-08-25T09:46:58;100.10;;;2.60;;
8938;SDS011;4504;48.810;9.172;2022-08-25T09:52:15;101.17;;;2.70;;
8938;SDS011;4504;48.810;9.172;2022-08-25T09:54:47;100.47;;;2.97;;
8938;SDS011;4504;48.810;9.172;2022-08-25T09:57:29;100.00;;;2.97;;
8938;SDS011;4504;48.810;9.172;2022-08-25T10:00:09;101.10;;;2.70;;
8938;SDS011;4504;48.810;9.172;2022-08-25T10:02:39;99.53;;;2.70;;
8938;SDS011;4504;48.810;9.172;2022-08-25T10:05:16;100.23;;;2.60;;
8938;SDS011;4504;48.810;9.172;2022-08-25T10:07:49;100.60;;;3.27;;
8938;SDS011;4504;48.810;9.172;2022-08-25T10:10:24;100.43;;;2.53;;
8938;SDS011;4504;48.810;9.172;2022-08-25T10:12:54;99.80;;;3.20;;
8938;SDS011;4504;48.810;9.172;2022-08-25T10:15:26;100.63;;;2.83;;
8938;SDS011;4504;48.810;9.172;2022-08-25T10:17:57;99.50;;;2.90;;
8938;SDS011;4504;48.810;9.172;2022-08-25T10:20:59;99.77;;;2.63;;
8938;SDS011;4504;48.810;9.172;2022-08-25T10:23:28;99.60;;;2.70;;
8938;SDS011;4504;48.810;9.172;2022-08-25T10:26:04;98.23;;;2.70;;
8938;SDS011;4504;48.810;9.172;2022-08-25T10:28:37;101.20;;;2.53;;
8938;SDS011;4504;48.810;9.172;2022-08-25T10:31:13;100.57;;;3.20;;
8938;SDS011;4504;48.810;9.172;2022-08-25T10:33:50;98.57;;;2.40;;
8938;SDS011;4504;48.810;9.172;2022-08-25T10:36:28;99.40;;;2.73;;
8938;SDS011;4504;48.810;9.172;2022-08-25T10:39:07;99.30;;;2.93;;
8938;SDS011;4504;48.810;9.172;2022-08-25T10:41:47;99.57;;;2.67;;
8938;SDS011;4504;48.810;9.172;2022-08-25T10:44:23;99.77;;;2.93;;
8938;SDS011;4504;48.810;9.172;2022-08-25T10:47:33;105.90;;;2.30;;
8938;SDS011;4504;48.810;9.172;2022-08-25T10:50:17;98.03;;;2.53;;
8938;SDS011;4504;48.810;9.172;2022-08-25T10:52:56;99.27;;;2.33;;
8938;SDS011;4504;48.810;9.172;2022-08-25T10:55:35;99.13;;;2.97;;
8938;SDS011;4504;48.810;9.172;2022-08-25T10:58:11;97.77;;;2.60;;
8938;SDS011;4504;48.810;9.172;2022-08-25T11:00:46;99.37;;;2.87;;
8938;SDS011;4504;48.810;9.172;2022-08-25T11:03:23;98.80;;;2.60;;
8938;SDS011;4504;48.810;9.172;2022-08-25T11:05:59;98.20;;;2.47;;
8938;SDS011;4504;48.810;9.172;2022-08-25T11:08:31;98.67;;;2.83;;
8938;SDS011;4504;48.810;9.172;2022-08-25T11:11:01;98.30;;;2.43;;
8938;SDS011;4504;48.810;9.172;2022-08-25T11:13:36;99.00;;;2.63;;
8938;SDS011;4504;48.810;9.172;2022-08-25T11:16:10;98.80;;;2.57;;
8938;SDS011;4504;48.810;9.172;2022-08-25T11:18:42;97.00;;;2.40;;
8938;SDS011;4504;48.810;9.172;2022-08-25T11:21:19;100.27;;;2.70;;
8938;SDS011;4504;48.810;9.172;2022-08-25T11:23:52;100.00;;;2.33;;
8938;SDS011;4504;48.810;9.172;2022-08-25T11:26:25;98.83;;;2.73;;
8938;SDS011;4504;48.810;9.172;2022-08-25T11:28:59;98.10;;;2.53;;
8938;SDS011;4504;48.810;9.172;2022-08-25T11:31:30;102.60;;;2.77;;
8938;SDS011;4504;48.810;9.172;2022-08-25T11:34:03;98.57;;;2.70;;
8938;SDS011;4504;48.810;9.172;2022-08-25T11:36:36;99.37;;;2.47;;
8938;SDS011;4504;48.810;9.172;2022-08-25T11:39:10;97.10;;;2.37;;
8938;SDS011;4504;48.810;9.172;2022-08-25T11:41:45;98.30;;;2.50;;
8938;SDS011;4504;48.810;9.172;2022-08-25T11:44:28;97.50;;;2.30;;
8938;SDS011;4504;48.810;9.172;2022-08-25T11:47:14;97.07;;;2.27;;
8938;SDS011;4504;48.810;9.172;2022-08-25T11:49:53;99.57;;;2.80;;
8938;SDS011;4504;48.810;9.172;2022-08-25T11:52:41;97.30;;;2.00;;
8938;SDS011;4504;48.810;9.172;2022-08-25T11:55:12;98.90;;;2.70;;
8938;SDS011;4504;48.810;9.172;2022-08-25T11:57:42;96.97;;;2.03;;
8938;SDS011;4504;48.810;9.172;2022-08-25T12:00:11;97.80;;;2.00;;
8938;SDS011;4504;48.810;9.172;2022-08-25T12:02:41;97.77;;;2.40;;
8938;SDS011;4504;48.810;9.172;2022-08-25T12:05:10;97.47;;;2.37;;
8938;SDS011;4504;48.810;9.172;2022-08-25T12:07:59;97.87;;;2.10;;
8938;SDS011;4504;48.810;9.172;2022-08-25T12:10:55;95.97;;;1.93;;
8938;SDS011;4504;48.810;9.172;2022-08-25T12:19:25;96.97;;;2.10;;
8938;SDS011;4504;48.810;9.172;2022-08-25T12:25:27;99.27;;;2.13;;
8938;SDS011;4504;48.810;9.172;2022-08-25T12:31:05;108.30;;;2.13;;
8938;SDS011;4504;48.810;9.172;2022-08-25T12:34:01;97.70;;;2.40;;
8938;SDS011;4504;48.810;9.172;2022-08-25T12:36:38;95.80;;;1.80;;
8938;SDS011;4504;48.810;9.172;2022-08-25T12:39:27;96.27;;;1.93;;
8938;SDS011;4504;48.810;9.172;2022-08-25T12:41:57;94.67;;;1.83;;
8938;SDS011;4504;48.810;9.172;2022-08-25T12:44:32;97.07;;;2.30;;
8938;SDS011;4504;48.810;9.172;2022-08-25T12:47:12;95.77;;;2.10;;
8938;SDS011;4504;48.810;9.172;2022-08-25T12:52:53;95.77;;;2.00;;
8938;SDS011;4504;48.810;9.172;2022-08-25T12:55:23;96.40;;;1.90;;
8938;SDS011;4504;48.810;9.172;2022-08-25T12:57:54;95.37;;;2.03;;
8938;SDS011;4504;48.810;9.172;2022-08-25T13:00:25;95.47;;;2.00;;
8938;SDS011;4504;48.810;9.172;2022-08-25T13:03:02;95.47;;;1.90;;
8938;SDS011;4504;48.810;9.172;2022-08-25T13:05:57;95.60;;;1.93;;
8938;SDS011;4504;48.810;9.172;2022-08-25T13:08:45;95.77;;;2.17;;
8938;SDS011;4504;48.810;9.172;2022-08-25T13:11:22;97.27;;;3.20;;
8938;SDS011;4504;48.810;9.172;2022-08-25T13:13:58;96.10;;;2.20;;
8938;SDS011;4504;48.810;9.172;2022-08-25T13:16:30;94.47;;;1.87;;
8938;SDS011;4504;48.810;9.172;2022-08-25T13:18:58;95.37;;;2.07;;
8938;SDS011;4504;48.810;9.172;2022-08-25T13:21:33;95.70;;;2.60;;
8938;SDS011;4504;48.810;9.172;2022-08-25T13:24:04;94.97;;;1.80;;
8938;SDS011;4504;48.810;9.172;2022-08-25T13:26:32;94.07;;;2.20;;
8938;SDS011;4504;48.810;9.172;2022-08-25T13:29:12;94.37;;;1.97;;
8938;SDS011;4504;48.810;9.172;2022-08-25T13:31:49;95.07;;;1.90;;
8938;SDS011;4504;48.810;9.172;2022-08-25T13:34:20;91.67;;;1.90;;
8938;SDS011;4504;48.810;9.172;2022-08-25T13:36:49;95.40;;;2.40;;
8938;SDS011;4504;48.810;9.172;2022-08-25T13:39:33;94.90;;;2.00;;
8938;SDS011;4504;48.810;9.172;2022-08-25T13:42:01;93.63;;;1.87;;
8938;SDS011;4504;48.810;9.172;2022-08-25T13:44:34;94.80;;;1.80;;
8938;SDS011;4504;48.810;9.172;2022-08-25T13:47:06;93.80;;;1.80;;
8938;SDS011;4504;48.810;9.172;2022-08-25T13:49:36;93.67;;;1.93;;
8938;SDS011;4504;48.810;9.172;2022-08-25T13:52:05;94.70;;;1.90;;
8938;SDS011;4504;48.810;9.172;2022-08-25T13:54:34;93.37;;;1.97;;
8938;SDS011;4504;48.810;9.172;2022-08-25T13:57:05;93.77;;;1.90;;
8938;SDS011;4504;48.810;9.172;2022-08-25T13:59:39;103.90;;;2.23;;
8938;SDS011;4504;48.810;9.172;2022-08-25T14:02:08;93.50;;;1.83;;
8938;SDS011;4504;48.810;9.172;2022-08-25T14:04:44;93.60;;;1.87;;
8938;SDS011;4504;48.810;9.172;2022-08-25T14:07:22;93.00;;;1.60;;
8938;SDS011;4504;48.810;9.172;2022-08-25T14:09:53;93.43;;;1.70;;
8938;SDS011;4504;48.810;9.172;2022-08-25T14:12:32;92.67;;;1.60;;
8938;SDS011;4504;48.810;9.172;2022-08-25T14:15:24;96.87;;;1.70;;
8938;SDS011;4504;48.810;9.172;2022-08-25T14:17:59;93.17;;;1.60;;
8938;SDS011;4504;48.810;9.172;2022-08-25T14:20:30;94.00;;;1.83;;
8938;SDS011;4504;48.810;9.172;2022-08-25T14:22:58;93.60;;;1.90;;
8938;SDS011;4504;48.810;9.172;2022-08-25T14:25:31;93.50;;;1.87;;
8938;SDS011;4504;48.810;9.172;2022-08-25T14:27:59;93.10;;;2.20;;
8938;SDS011;4504;48.810;9.172;2022-08-25T14:30:29;93.20;;;1.70;;
8938;SDS011;4504;48.810;9.172;2022-08-25T14:32:58;93.07;;;2.03;;
8938;SDS011;4504;48.810;9.172;2022-08-25T14:35:27;94.10;;;1.80;;
8938;SDS011;4504;48.810;9.172;2022-08-25T14:37:54;94.43;;;2.07;;
8938;SDS011;4504;48.810;9.172;2022-08-25T14:40:22;92.73;;;1.70;;
8938;SDS011;4504;48.810;9.172;2022-08-25T14:42:48;93.23;;;1.70;;
8938;SDS011;4504;48.810;9.172;2022-08-25T14:45:16;94.40;;;1.90;;
8938;SDS011;4504;48.810;9.172;2022-08-25T14:47:45;94.37;;;2.07;;
8938;SDS011;4504;48.810;9.172;2022-08-25T14:50:12;93.37;;;1.60;;
8938;SDS011;4504;48.810;9.172;2022-08-25T14:52:40;94.00;;;1.97;;
8938;SDS011;4504;48.810;9.172;2022-08-25T14:55:09;92.60;;;1.83;;
8938;SDS011;4504;48.810;9.172;2022-08-25T14:57:37;91.37;;;1.63;;
8938;SDS011;4504;48.810;9.172;2022-08-25T15:00:06;92.37;;;1.70;;
8938;SDS011;4504;48.810;9.172;2022-08-25T15:02:35;92.70;;;1.70;;
8938;SDS011;4504;48.810;9.172;2022-08-25T15:05:07;91.63;;;1.70;;
8938;SDS011;4504;48.810;9.172;2022-08-25T15:07:36;92.97;;;1.73;;
8938;SDS011;4504;48.810;9.172;2022-08-25T15:10:21;91.47;;;1.53;;
8938;SDS011;4504;48.810;9.172;2022-08-25T15:12:48;93.07;;;2.00;;
8938;SDS011;4504;48.810;9.172;2022-08-25T15:15:15;91.97;;;1.60;;
8938;SDS011;4504;48.810;9.172;2022-08-25T15:17:43;91.70;;;1.90;;
8938;SDS011;4504;48.810;9.172;2022-08-25T15:20:13;91.87;;;2.03;;
8938;SDS011;4504;48.810;9.172;2022-08-25T15:22:40;93.10;;;1.60;;
8938;SDS011;4504;48.810;9.172;2022-08-25T15:25:09;92.30;;;1.57;;
8938;SDS011;4504;48.810;9.172;2022-08-25T15:27:36;91.70;;;2.00;;
8938;SDS011;4504;48.810;9.172;2022-08-25T15:30:04;93.50;;;2.07;;
8938;SDS011;4504;48.810;9.172;2022-08-25T15:32:31;91.77;;;1.93;;
8938;SDS011;4504;48.810;9.172;2022-08-25T15:34:59;91.03;;;1.57;;